Time;durP1;ratioP1;P1;durP2;ratioP2;P2;SDS_P1;SDS_P2;PMS_P1;PMS_P2;Temp;Humidity;BMP_temperature;BMP_pressure;BME280_temperature;BME280_humidity;BME280_pressure;Samples;Min_cycle;Max_cycle;Signal;HPM_P1;HPM_P2
2022/08/24 00:01:27;;;;;;;2.80;2.40;;;;;;;19.72;51.19;98693.38;4983143;28;20320;-56
2022/08/24 00:03:55;;;;;;;2.73;2.33;;;;;;;19.67;51.45;98699.28;4983560;28;20238;-54
2022/08/24 00:06:24;;;;;;;5.60;2.47;;;;;;;19.61;51.51;98697.47;4984336;28;20650;-52
2022/08/24 00:08:53;;;;;;;3.17;2.63;;;;;;;19.55;51.77;98701.78;4984358;28;20234;-52
2022/08/24 00:11:21;;;;;;;4.83;2.70;;;;;;;19.50;51.88;98700.78;4964577;28;20242;-55
2022/08/24 00:13:48;;;;;;;3.93;2.83;;;;;;;19.50;51.94;98703.44;4964736;28;20328;-55
2022/08/24 00:16:16;;;;;;;2.73;2.37;;;;;;;19.56;51.95;98706.03;4962576;28;20775;-55
2022/08/24 00:18:44;;;;;;;4.90;3.10;;;;;;;19.52;51.49;98704.84;4961749;28;20232;-52
2022/08/24 00:21:12;;;;;;;2.93;2.53;;;;;;;19.55;51.66;98712.34;4962666;28;20258;-55
2022/08/24 00:23:39;;;;;;;3.27;2.57;;;;;;;19.50;51.81;98708.72;4964323;28;20594;-54
2022/08/24 00:26:08;;;;;;;3.03;2.43;;;;;;;19.38;51.98;98716.47;4963819;28;20283;-55
2022/08/24 00:28:34;;;;;;;5.07;2.73;;;;;;;19.26;52.16;98713.63;4964185;28;20581;-53
2022/08/24 00:31:01;;;;;;;5.50;2.60;;;;;;;19.29;52.66;98716.66;4964334;28;20233;-54
2022/08/24 00:33:29;;;;;;;2.57;2.37;;;;;;;19.24;52.99;98716.47;4969146;28;20243;-55
2022/08/24 00:35:56;;;;;;;4.03;2.73;;;;;;;19.16;53.06;98714.03;4967692;28;20241;-54
2022/08/24 00:38:23;;;;;;;4.97;2.80;;;;;;;19.15;53.16;98712.41;4971302;28;20712;-55
2022/08/24 00:40:50;;;;;;;2.87;2.43;;;;;;;19.07;53.62;98710.78;4974468;28;20237;-55
2022/08/24 00:43:22;;;;;;;4.47;2.67;;;;;;;19.02;54.08;98710.59;4968748;28;20265;-53
2022/08/24 00:46:03;;;;;;;4.70;2.70;;;;;;;18.88;53.96;98722.97;4971035;28;20234;-52
2022/08/24 00:48:33;;;;;;;4.95;2.63;;;;;;;18.82;54.23;98727.22;5002744;28;20452;-52
2022/08/24 00:51:05;;;;;;;5.83;2.87;;;;;;;18.76;54.83;98722.75;5004062;28;20260;-52
2022/08/24 00:53:53;;;;;;;4.37;2.27;;;;;;;18.63;54.31;98725.38;4989036;28;20240;-53
2022/08/24 00:56:24;;;;;;;4.37;2.90;;;;;;;18.55;54.93;98721.91;4976030;28;20276;-53
2022/08/24 00:58:57;;;;;;;6.27;2.87;;;;;;;18.51;54.74;98725.16;4987622;28;20246;-54
2022/08/24 01:01:25;;;;;;;3.43;2.90;;;;;;;18.47;54.67;98729.22;5003660;28;20229;-53
2022/08/24 01:03:53;;;;;;;4.33;2.80;;;;;;;18.46;55.09;98728.41;4988131;28;20711;-55
2022/08/24 01:06:19;;;;;;;6.10;3.00;;;;;;;18.43;55.08;98728.81;4979301;28;20237;-53
2022/08/24 01:08:46;;;;;;;5.37;2.83;;;;;;;18.39;55.05;98730.22;4978080;28;20223;-52
2022/08/24 01:11:17;;;;;;;4.77;2.43;;;;;;;18.35;55.83;98727.16;4977157;28;20232;-54
2022/08/24 01:13:48;;;;;;;3.10;2.70;;;;;;;18.26;55.64;98730.97;4988235;28;20704;-55
2022/08/24 01:18:48;;;;;;;4.93;2.80;;;;;;;18.34;55.90;98732.63;4987519;28;20237;-52
2022/08/24 01:19:20;;;;;;;4.57;3.03;;;;;;;18.23;55.80;98728.72;4987741;28;20240;-55
2022/08/24 01:21:55;;;;;;;3.37;2.80;;;;;;;18.24;55.93;98730.34;4986858;28;20238;-51
2022/08/24 01:24:24;;;;;;;4.30;3.03;;;;;;;18.16;56.14;98734.00;4980395;28;20331;-55
2022/08/24 01:26:51;;;;;;;4.50;3.03;;;;;;;18.17;56.72;98738.28;4979375;28;20223;-54
2022/08/24 01:29:21;;;;;;;3.63;2.80;;;;;;;18.08;57.15;98734.97;4968318;28;20820;-53
2022/08/24 01:31:48;;;;;;;3.97;3.17;;;;;;;18.05;57.19;98732.72;4967912;28;20711;-55
2022/08/24 01:34:15;;;;;;;5.33;2.50;;;;;;;17.97;56.62;98733.69;4987780;28;20229;-55
2022/08/24 01:36:45;;;;;;;5.90;3.20;;;;;;;17.95;57.49;98732.25;4972241;28;20729;-55
2022/08/24 01:39:15;;;;;;;6.07;3.20;;;;;;;17.88;57.60;98734.84;4971717;28;20226;-54
2022/08/24 01:41:44;;;;;;;5.33;2.90;;;;;;;17.87;58.04;98732.44;4980070;28;20236;-53
2022/08/24 01:44:12;;;;;;;6.07;3.23;;;;;;;17.83;57.63;98724.91;5005784;28;20225;-55
2022/08/24 01:46:43;;;;;;;4.07;3.20;;;;;;;17.81;57.73;98723.44;4992948;28;20229;-55
2022/08/24 01:49:10;;;;;;;5.67;2.97;;;;;;;17.74;58.14;98722.59;4991747;28;20238;-55
2022/08/24 01:51:37;;;;;;;3.57;2.83;;;;;;;17.70;58.04;98723.00;4993504;28;20629;-55
2022/08/24 01:54:05;;;;;;;5.07;3.17;;;;;;;17.67;58.43;98719.94;4991364;28;20705;-54
2022/08/24 01:56:34;;;;;;;4.00;3.10;;;;;;;17.67;58.33;98733.13;4984512;28;20234;-54
2022/08/24 01:59:04;;;;;;;6.30;3.27;;;;;;;17.69;57.82;98726.63;4990426;28;20227;-54
2022/08/24 02:01:38;;;;;;;5.43;3.30;;;;;;;17.64;57.95;98728.25;5008170;28;20239;-55
2022/08/24 02:04:06;;;;;;;4.80;3.20;;;;;;;17.61;58.05;98728.63;5007599;28;20211;-52
2022/08/24 02:06:34;;;;;;;9.80;2.83;;;;;;;17.55;58.76;98730.19;4991473;28;20264;-55
2022/08/24 02:09:02;;;;;;;4.17;2.90;;;;;;;17.48;58.57;98732.00;4997301;28;20222;-54
2022/08/24 02:11:32;;;;;;;4.43;3.10;;;;;;;17.45;59.44;98735.84;4981183;28;20318;-52
2022/08/24 02:13:59;;;;;;;4.20;2.87;;;;;;;17.45;59.13;98737.66;5006872;28;20219;-52
2022/08/24 02:16:27;;;;;;;6.63;3.40;;;;;;;17.47;59.67;98735.66;4978594;28;20239;-53
2022/08/24 02:18:55;;;;;;;6.23;3.00;;;;;;;17.48;59.78;98743.38;4992301;28;20868;-52
2022/08/24 02:21:22;;;;;;;4.93;3.10;;;;;;;17.43;59.28;98735.22;4992533;28;20241;-51
2022/08/24 02:23:48;;;;;;;5.43;3.30;;;;;;;17.38;59.56;98740.25;4982077;28;20312;-53
2022/08/24 02:26:16;;;;;;;7.57;3.70;;;;;;;17.32;60.23;98738.38;4979982;28;20232;-52
2022/08/24 02:28:44;;;;;;;4.67;3.20;;;;;;;17.30;60.47;98735.94;4991726;28;20650;-52
2022/08/24 02:31:12;;;;;;;4.73;3.17;;;;;;;17.26;60.28;98742.63;4990778;28;20235;-51
2022/08/24 02:33:41;;;;;;;3.70;3.40;;;;;;;17.25;60.74;98743.63;4991321;28;20227;-51
2022/08/24 02:36:10;;;;;;;8.00;3.20;;;;;;;17.32;60.15;98746.28;4989758;28;20227;-53
2022/08/24 02:38:37;;;;;;;6.37;3.60;;;;;;;17.28;60.42;98751.16;4991265;28;20236;-52
2022/08/24 02:41:10;;;;;;;4.10;3.23;;;;;;;17.24;60.86;98748.06;4977447;28;20231;-51
2022/08/24 02:43:38;;;;;;;4.40;3.70;;;;;;;17.23;60.96;98749.06;4984084;28;20767;-53
2022/08/24 02:46:05;;;;;;;3.63;3.20;;;;;;;17.17;61.13;98743.75;4981091;28;20228;-53
2022/08/24 02:48:32;;;;;;;4.47;3.40;;;;;;;17.14;61.48;98752.03;4991274;28;20227;-52
2022/08/24 02:51:01;;;;;;;3.90;3.30;;;;;;;17.08;61.45;98749.16;4990560;28;20238;-51
2022/08/24 02:53:28;;;;;;;5.40;3.10;;;;;;;17.14;61.77;98744.94;4989946;28;20239;-51
2022/08/24 02:55:55;;;;;;;4.93;3.40;;;;;;;17.23;62.06;98745.63;4989098;28;20223;-51
2022/08/24 02:58:22;;;;;;;5.10;3.33;;;;;;;17.19;61.20;98749.66;4992402;28;20239;-51
2022/08/24 03:00:49;;;;;;;4.53;3.50;;;;;;;17.15;61.83;98741.28;4983756;28;20247;-52
2022/08/24 03:03:19;;;;;;;4.40;3.20;;;;;;;17.23;60.81;98741.16;4991317;28;20231;-55
2022/08/24 03:05:46;;;;;;;5.60;3.53;;;;;;;17.17;61.40;98741.13;4983427;28;20764;-52
2022/08/24 03:08:14;;;;;;;4.67;3.40;;;;;;;17.25;61.23;98735.72;4983651;28;20247;-52
2022/08/24 03:10:41;;;;;;;4.23;3.10;;;;;;;17.22;61.03;98736.88;4983242;28;20616;-53
2022/08/24 03:13:09;;;;;;;8.47;3.20;;;;;;;17.23;61.16;98735.88;4988056;28;20231;-52
2022/08/24 03:15:36;;;;;;;5.17;3.23;;;;;;;17.23;60.81;98729.81;4981615;28;20893;-52
2022/08/24 03:18:03;;;;;;;5.07;3.13;;;;;;;17.24;60.53;98729.59;4989747;28;20297;-51
2022/08/24 03:20:31;;;;;;;4.77;3.17;;;;;;;17.23;61.07;98730.59;4990447;28;20235;-53
2022/08/24 03:22:58;;;;;;;3.60;3.20;;;;;;;17.26;60.94;98732.06;5005496;28;20238;-54
2022/08/24 03:25:26;;;;;;;6.63;3.40;;;;;;;17.21;60.74;98729.97;4990996;28;20313;-52
2022/08/24 03:27:53;;;;;;;3.50;3.17;;;;;;;17.24;60.51;98729.59;4982973;28;20716;-53
2022/08/24 03:30:22;;;;;;;5.50;3.20;;;;;;;17.30;61.28;98733.31;4990363;28;20235;-52
2022/08/24 03:32:50;;;;;;;5.67;3.80;;;;;;;17.27;60.72;98731.06;4991474;28;20240;-51
2022/08/24 03:35:18;;;;;;;4.57;3.33;;;;;;;17.21;60.87;98729.97;4989979;28;20228;-52
2022/08/24 03:37:44;;;;;;;6.17;3.40;;;;;;;17.27;60.53;98726.56;5005549;28;20236;-51
2022/08/24 03:40:12;;;;;;;5.33;3.17;;;;;;;17.27;60.44;98729.22;4989700;28;20215;-54
2022/08/24 03:42:41;;;;;;;5.27;3.23;;;;;;;17.40;59.93;98730.31;4988811;28;20697;-54
2022/08/24 03:45:09;;;;;;;4.40;2.90;;;;;;;17.33;60.39;98729.47;5005027;28;20335;-53
2022/08/24 03:47:36;;;;;;;5.23;3.63;;;;;;;17.22;60.75;98733.44;4989990;28;20251;-51
2022/08/24 03:50:05;;;;;;;4.87;3.10;;;;;;;17.22;60.96;98739.53;5005277;28;20318;-52
2022/08/24 03:52:51;;;;;;;4.87;3.10;;;;;;;17.20;61.05;98735.47;4991373;28;20612;-52
2022/08/24 03:55:19;;;;;;;5.43;3.10;;;;;;;17.23;60.81;98743.78;4988583;28;20320;-54
2022/08/24 03:57:48;;;;;;;4.80;3.13;;;;;;;17.23;60.60;98746.44;4977726;28;20231;-54
2022/08/24 04:00:16;;;;;;;4.00;3.43;;;;;;;17.21;60.74;98732.63;4989516;28;20364;-56
2022/08/24 04:02:51;;;;;;;6.50;3.00;;;;;;;17.14;60.59;98733.59;4978710;28;20290;-54
2022/08/24 04:05:20;;;;;;;5.60;3.40;;;;;;;17.19;60.16;98734.63;5004148;28;20581;-55
2022/08/24 04:07:47;;;;;;;3.67;3.10;;;;;;;17.10;60.61;98739.25;4978998;28;20230;-56
2022/08/24 04:10:14;;;;;;;3.53;2.90;;;;;;;17.06;61.26;98737.16;4975331;28;20238;-55
2022/08/24 04:12:41;;;;;;;6.73;3.00;;;;;;;17.10;61.01;98735.78;4980653;28;20268;-52
2022/08/24 04:15:11;;;;;;;3.93;3.20;;;;;;;17.05;61.03;98733.72;4988828;28;20224;-55
2022/08/24 04:17:39;;;;;;;4.20;3.10;;;;;;;17.05;61.03;98730.25;4987720;28;20236;-55
2022/08/24 04:20:07;;;;;;;3.63;3.13;;;;;;;17.11;60.86;98732.13;4988760;28;20263;-55
2022/08/24 04:22:37;;;;;;;7.03;3.20;;;;;;;17.01;61.38;98731.63;4989321;28;20242;-56
2022/08/24 04:25:05;;;;;;;5.50;3.20;;;;;;;17.01;61.09;98737.75;4977866;28;20233;-56
2022/08/24 04:27:32;;;;;;;3.47;3.17;;;;;;;16.94;61.32;98732.38;5005728;28;20238;-56
2022/08/24 04:29:59;;;;;;;5.43;3.53;;;;;;;16.97;61.09;98734.66;4979654;28;20691;-55
2022/08/24 04:32:32;;;;;;;6.30;3.40;;;;;;;17.01;61.94;98742.19;4987027;28;20239;-52
2022/08/24 04:34:59;;;;;;;4.90;2.93;;;;;;;17.03;61.87;98745.44;4987297;28;20608;-52
2022/08/24 04:37:27;;;;;;;7.30;3.63;;;;;;;17.03;61.20;98745.44;5004500;28;20242;-55
2022/08/24 04:39:54;;;;;;;3.70;3.40;;;;;;;16.99;61.61;98741.56;4988430;28;20787;-53
2022/08/24 04:42:27;;;;;;;3.83;3.27;;;;;;;17.05;61.37;98751.34;4975474;28;20344;-54
2022/08/24 04:44:54;;;;;;;5.43;3.03;;;;;;;17.03;61.74;98740.16;4990047;28;20227;-53
2022/08/24 04:47:23;;;;;;;3.60;3.10;;;;;;;17.03;61.89;98748.09;4972110;28;20299;-51
2022/08/24 04:49:51;;;;;;;4.57;3.33;;;;;;;17.08;61.37;98743.06;4989039;28;20232;-52
2022/08/24 04:52:18;;;;;;;4.53;3.37;;;;;;;17.11;62.09;98747.94;4987947;28;20242;-54
2022/08/24 04:54:45;;;;;;;3.80;3.43;;;;;;;17.13;62.37;98756.50;4978133;28;20236;-53
2022/08/24 04:57:19;;;;;;;5.83;3.20;;;;;;;17.12;62.06;98752.22;4992208;28;20237;-53
2022/08/24 04:59:48;;;;;;;5.23;3.60;;;;;;;17.15;61.92;98751.84;4987904;28;20234;-52
2022/08/24 05:02:14;;;;;;;4.73;3.30;;;;;;;17.27;60.98;98758.22;4977886;28;20236;-54
2022/08/24 05:04:42;;;;;;;3.50;3.20;;;;;;;17.28;61.43;98759.06;4976720;28;20294;-51
2022/08/24 05:07:11;;;;;;;5.60;3.30;;;;;;;17.38;60.82;98764.00;4990435;28;20239;-52
2022/08/24 05:09:40;;;;;;;5.87;3.63;;;;;;;17.45;61.41;98759.59;4972716;28;20313;-51
2022/08/24 05:12:08;;;;;;;6.03;3.27;;;;;;;17.43;61.63;98760.81;5004192;28;20734;-51
2022/08/24 05:14:39;;;;;;;7.37;3.20;;;;;;;17.46;61.41;98768.34;4977718;28;20608;-54
2022/08/24 05:17:07;;;;;;;3.47;2.90;;;;;;;17.47;61.20;98767.31;5002517;28;20228;-53
2022/08/24 05:19:33;;;;;;;6.13;3.10;;;;;;;17.56;61.57;98766.16;4988809;28;20227;-53
2022/08/24 05:22:00;;;;;;;6.27;3.30;;;;;;;17.57;61.02;98773.06;4988744;28;20243;-52
2022/08/24 05:24:29;;;;;;;4.80;3.00;;;;;;;17.56;61.23;98772.25;4978283;28;20334;-55
2022/08/24 05:26:59;;;;;;;4.90;3.10;;;;;;;17.55;61.18;98770.63;4976720;28;20226;-54
2022/08/24 05:29:44;;;;;;;4.97;3.30;;;;;;;17.59;61.47;98770.25;4989751;28;20320;-54
2022/08/24 05:32:12;;;;;;;6.20;3.33;;;;;;;17.66;62.09;98774.53;4978871;28;20690;-52
2022/08/24 05:34:39;;;;;;;5.07;3.43;;;;;;;17.62;62.42;98778.56;4990361;28;20324;-52
2022/08/24 05:37:07;;;;;;;5.00;3.40;;;;;;;17.62;62.76;98781.22;4987199;28;20297;-52
2022/08/24 05:40:14;;;;;;;4.97;3.30;;;;;;;17.65;62.69;98780.81;4981157;28;20680;-51
2022/08/24 05:42:43;;;;;;;3.93;3.13;;;;;;;17.79;61.97;98771.19;4987241;28;20230;-52
2022/08/24 05:45:11;;;;;;;5.80;3.40;;;;;;;17.80;62.32;98771.97;4987909;28;20250;-51
2022/08/24 05:47:38;;;;;;;4.03;3.53;;;;;;;17.86;61.59;98781.78;4986891;28;20326;-53
2022/08/24 05:50:18;;;;;;;3.20;2.90;;;;;;;17.92;61.50;98785.47;4979827;28;20237;-54
2022/08/24 05:52:45;;;;;;;4.73;2.87;;;;;;;17.93;61.37;98776.53;4973728;28;20240;-54
2022/08/24 05:55:14;;;;;;;3.37;3.07;;;;;;;17.98;60.73;98774.94;4977184;28;20564;-52
2022/08/24 05:57:42;;;;;;;9.53;3.50;;;;;;;18.02;61.60;98770.09;4987514;28;20701;-53
2022/08/24 06:00:16;;;;;;;5.93;2.80;;;;;;;18.10;61.04;98771.78;4987771;28;20263;-53
2022/08/24 06:02:45;;;;;;;3.33;3.03;;;;;;;18.14;60.68;98771.16;4987526;28;20257;-53
2022/08/24 06:05:13;;;;;;;7.63;3.40;;;;;;;18.25;59.16;98774.25;4989170;28;20757;-52
2022/08/24 06:07:59;;;;;;;4.37;3.00;;;;;;;18.33;60.02;98781.22;4988469;28;20692;-53
2022/08/24 06:10:28;;;;;;;4.73;3.43;;;;;;;18.36;60.62;98778.97;4987490;28;20228;-52
2022/08/24 06:12:55;;;;;;;4.80;3.00;;;;;;;18.51;59.69;98781.50;4977456;28;20235;-52
2022/08/24 06:15:22;;;;;;;6.03;3.20;;;;;;;18.54;59.74;98775.81;4987378;28;20313;-54
2022/08/24 06:17:50;;;;;;;3.57;3.27;;;;;;;18.58;59.94;98779.66;4977432;28;20327;-54
2022/08/24 06:20:18;;;;;;;4.07;2.93;;;;;;;18.70;58.83;98776.44;4982249;28;20248;-52
2022/08/24 06:22:44;;;;;;;5.47;3.10;;;;;;;18.74;58.77;98775.03;4979250;28;20233;-53
2022/08/24 06:27:59;;;;;;;5.13;3.30;;;;;;;18.89;58.39;98777.50;4988454;28;20227;-55
2022/08/24 06:30:26;;;;;;;4.60;3.20;;;;;;;18.98;59.17;98778.97;4993101;28;20270;-52
2022/08/24 06:33:01;;;;;;;4.63;3.63;;;;;;;19.04;59.56;98777.34;4979091;28;20464;-54
2022/08/24 06:35:47;;;;;;;6.53;2.90;;;;;;;19.14;59.07;98784.88;4992870;28;20719;-52
2022/08/24 06:38:14;;;;;;;5.93;4.23;;;;;;;19.24;57.95;98782.63;4989823;28;20243;-54
2022/08/24 06:40:43;;;;;;;7.10;4.17;;;;;;;19.34;58.48;98784.88;4991428;28;20221;-52
2022/08/24 06:43:12;;;;;;;5.93;3.90;;;;;;;19.47;58.91;98786.69;4991106;28;20276;-52
2022/08/24 06:45:54;;;;;;;5.57;3.80;;;;;;;19.63;57.95;98785.44;4991443;28;20280;-54
2022/08/24 06:48:29;;;;;;;5.43;3.77;;;;;;;19.81;57.25;98784.00;4990749;28;20250;-55
2022/08/24 06:50:56;;;;;;;5.70;3.30;;;;;;;19.98;57.43;98792.34;4990295;28;20227;-55
2022/08/24 06:53:23;;;;;;;5.20;2.93;;;;;;;20.14;56.92;98780.47;4990650;28;20239;-55
2022/08/24 06:55:52;;;;;;;3.20;2.90;;;;;;;20.32;55.49;98793.03;4992544;28;20343;-54
2022/08/24 06:58:25;;;;;;;5.17;3.63;;;;;;;20.47;55.50;98796.25;4989859;28;20239;-55
2022/08/24 07:00:53;;;;;;;3.73;3.40;;;;;;;20.59;55.53;98803.53;4989508;28;20319;-53
2022/08/24 07:03:22;;;;;;;7.97;4.80;;;;;;;20.65;54.97;98802.69;4988316;28;20595;-53
2022/08/24 07:05:58;;;;;;;6.13;4.43;;;;;;;20.70;55.09;98820.59;4990381;28;20236;-52
2022/08/24 07:08:51;;;;;;;7.30;4.50;;;;;;;20.84;54.67;98818.72;4991175;28;20589;-56
2022/08/24 07:11:19;;;;;;;6.47;4.77;;;;;;;20.81;54.69;98811.19;4988633;28;20231;-54
2022/08/24 07:13:49;;;;;;;7.77;4.50;;;;;;;20.86;54.71;98817.47;4990677;28;20236;-53
2022/08/24 07:16:17;;;;;;;9.27;4.67;;;;;;;20.97;54.97;98820.47;4988915;28;20226;-52
2022/08/24 07:18:46;;;;;;;6.97;4.47;;;;;;;20.84;55.00;98816.06;4980215;28;20225;-54
2022/08/24 07:21:13;;;;;;;4.83;4.30;;;;;;;20.90;55.35;98817.88;4987365;28;20251;-52
2022/08/24 07:23:45;;;;;;;7.40;4.60;;;;;;;21.01;54.83;98811.88;4981800;28;20582;-52
2022/08/24 07:26:17;;;;;;;4.77;3.97;;;;;;;21.13;54.36;98819.16;4982511;28;20344;-52
2022/08/24 07:28:45;;;;;;;5.43;4.23;;;;;;;21.24;54.04;98824.59;4990024;28;20285;-53
2022/08/24 07:31:14;;;;;;;8.83;4.17;;;;;;;21.23;54.25;98812.34;4988372;28;20281;-52
2022/08/24 07:33:50;;;;;;;10.60;4.40;;;;;;;21.26;53.93;98827.00;4975037;28;20612;-55
2022/08/24 07:36:18;;;;;;;9.27;4.30;;;;;;;21.32;54.00;98833.31;5004192;28;20823;-52
2022/08/24 07:38:46;;;;;;;10.23;5.13;;;;;;;21.24;53.61;98829.88;5004492;28;20322;-52
2022/08/24 07:41:14;;;;;;;9.37;4.97;;;;;;;21.49;53.04;98838.88;4989651;28;20313;-54
2022/08/24 07:43:42;;;;;;;9.50;4.83;;;;;;;21.50;52.82;98836.03;4980395;28;20264;-53
2022/08/24 07:46:08;;;;;;;10.73;4.70;;;;;;;21.52;52.74;98838.47;4988136;28;20309;-53
2022/08/24 07:48:37;;;;;;;8.53;4.40;;;;;;;21.43;53.31;98834.44;4989954;28;20288;-53
2022/08/24 07:51:23;;;;;;;6.73;4.33;;;;;;;21.59;52.93;98835.75;4990110;28;20721;-53
2022/08/24 07:53:50;;;;;;;9.60;4.57;;;;;;;21.75;51.94;98835.22;4989829;28;20230;-54
2022/08/24 07:56:17;;;;;;;6.07;4.63;;;;;;;21.74;51.32;98836.25;4978602;28;20223;-54
2022/08/24 07:58:47;;;;;;;10.40;4.77;;;;;;;21.82;50.77;98827.97;4988757;28;20586;-51
2022/08/24 08:01:14;;;;;;;8.00;4.33;;;;;;;21.91;50.79;98830.34;4978661;28;20419;-53
2022/08/24 08:03:43;;;;;;;8.40;4.50;;;;;;;21.73;51.20;98825.84;4988768;28;20279;-55
2022/08/24 08:06:10;;;;;;;6.93;3.93;;;;;;;21.97;51.07;98826.81;4980993;28;20223;-55
2022/08/24 08:08:39;;;;;;;6.37;4.30;;;;;;;22.12;50.48;98834.44;4983076;28;20326;-55
2022/08/24 08:11:07;;;;;;;5.73;3.93;;;;;;;22.18;50.51;98827.44;5003001;28;20231;-55
2022/08/24 08:13:34;;;;;;;11.33;4.07;;;;;;;22.39;50.26;98831.47;5004500;28;20269;-52
2022/08/24 08:16:02;;;;;;;11.20;4.30;;;;;;;22.51;50.05;98835.03;5003278;28;20308;-54
2022/08/24 08:18:30;;;;;;;6.87;3.80;;;;;;;22.59;49.75;98836.59;4987388;28;20229;-55
2022/08/24 08:21:03;;;;;;;5.50;3.70;;;;;;;22.69;49.44;98836.03;4987666;28;20310;-52
2022/08/24 08:26:25;;;;;;;9.43;4.17;;;;;;;22.89;48.91;98838.41;5004772;28;20710;-56
2022/08/24 08:29:04;;;;;;;7.10;3.87;;;;;;;23.07;48.49;98842.06;5005151;28;20451;-52
2022/08/24 08:31:35;;;;;;;5.90;3.93;;;;;;;23.15;48.54;98837.25;4987815;28;20237;-55
2022/08/24 08:34:03;;;;;;;4.63;3.50;;;;;;;23.30;48.48;98836.03;4988537;28;20231;-53
2022/08/24 08:36:32;;;;;;;9.87;4.43;;;;;;;23.42;48.54;98836.84;4988866;28;20231;-53
2022/08/24 08:39:00;;;;;;;7.33;3.97;;;;;;;23.51;47.23;98836.50;4980192;28;20230;-52
2022/08/24 08:41:57;;;;;;;9.17;3.97;;;;;;;23.53;46.55;98842.41;4990724;28;20228;-52
2022/08/24 08:44:42;;;;;;;8.80;3.60;;;;;;;23.67;46.70;98841.13;4985746;28;20246;-52
2022/08/24 08:47:22;;;;;;;8.93;3.53;;;;;;;23.78;46.76;98841.38;4987082;28;20223;-51
2022/08/24 08:50:09;;;;;;;4.60;3.83;;;;;;;23.91;46.44;98834.97;4986781;28;20318;-54
2022/08/24 08:53:22;;;;;;;6.30;4.03;;;;;;;24.13;45.48;98832.56;4996876;28;20359;-52
2022/08/24 08:56:01;;;;;;;8.30;4.00;;;;;;;24.22;45.47;98833.81;4986834;28;20878;-51
2022/08/24 08:58:48;;;;;;;9.17;4.10;;;;;;;24.43;45.58;98836.88;4987938;28;20244;-53
2022/08/24 09:01:24;;;;;;;5.20;3.90;;;;;;;24.64;44.87;98831.94;4985940;28;20243;-52
2022/08/24 09:04:33;;;;;;;10.30;4.10;;;;;;;24.67;44.33;98826.94;4988477;28;20236;-52
2022/08/24 09:07:16;;;;;;;6.47;4.07;;;;;;;24.74;43.38;98827.66;4985833;28;20367;-52
2022/08/24 09:10:13;;;;;;;9.00;3.57;;;;;;;24.73;42.37;98823.34;4988341;28;20231;-53
2022/08/24 09:12:58;;;;;;;11.53;3.77;;;;;;;24.96;42.70;98826.16;4979698;28;20405;-52
2022/08/24 09:15:52;;;;;;;6.80;4.10;;;;;;;25.09;42.34;98835.69;4971315;28;20254;-52
2022/08/24 09:18:35;;;;;;;7.10;4.20;;;;;;;25.05;42.10;98824.69;4988096;28;20236;-53
2022/08/24 09:21:25;;;;;;;8.20;4.27;;;;;;;25.08;42.43;98826.06;4977706;28;20297;-52
2022/08/24 09:24:02;;;;;;;12.40;4.00;;;;;;;25.32;41.95;98821.41;4987285;28;20819;-51
2022/08/24 09:26:44;;;;;;;8.73;4.07;;;;;;;25.30;41.97;98810.16;4990527;28;20236;-55
2022/08/24 09:29:16;;;;;;;9.40;3.80;;;;;;;25.44;42.24;98807.94;4987963;28;20236;-54
2022/08/24 09:32:02;;;;;;;10.03;4.67;;;;;;;25.57;42.45;98807.66;4988555;28;20237;-55
2022/08/24 09:34:37;;;;;;;9.53;4.37;;;;;;;25.83;41.05;98807.19;4989218;28;20287;-54
2022/08/24 09:37:23;;;;;;;11.87;3.60;;;;;;;25.97;40.95;98803.09;4988745;28;20231;-55
2022/08/24 09:40:01;;;;;;;4.83;3.77;;;;;;;26.09;40.99;98808.31;4990041;28;20236;-53
2022/08/24 09:43:02;;;;;;;12.87;4.00;;;;;;;26.08;40.34;98804.03;4989066;28;20242;-52
2022/08/24 09:45:58;;;;;;;9.07;3.70;;;;;;;26.20;40.58;98810.09;4988838;28;20248;-55
2022/08/24 09:48:56;;;;;;;11.13;3.60;;;;;;;26.28;40.04;98806.19;4972068;28;20231;-52
2022/08/24 09:52:00;;;;;;;7.80;3.60;;;;;;;26.34;39.91;98796.34;4986584;28;20230;-52
2022/08/24 09:55:05;;;;;;;7.50;3.40;;;;;;;26.58;38.30;98794.16;4965247;28;20242;-55
2022/08/24 09:57:44;;;;;;;5.47;3.43;;;;;;;26.73;36.90;98790.84;4985115;28;20239;-52
2022/08/24 10:00:18;;;;;;;4.30;2.83;;;;;;;26.96;36.50;98789.75;4987730;28;20729;-53
2022/08/24 10:03:17;;;;;;;11.67;3.00;;;;;;;27.11;36.60;98796.28;4989516;28;20234;-50
2022/08/24 10:06:06;;;;;;;8.17;2.93;;;;;;;27.29;36.30;98778.22;4992630;28;20710;-51
2022/08/24 10:08:47;;;;;;;5.73;2.80;;;;;;;27.55;34.19;98790.75;4980813;28;20907;-51
2022/08/24 10:11:26;;;;;;;8.80;3.00;;;;;;;27.92;33.80;98796.28;4992075;28;20230;-51
2022/08/24 10:14:02;;;;;;;6.60;2.83;;;;;;;28.05;32.84;98781.59;4992852;28;20651;-51
2022/08/24 10:16:53;;;;;;;2.60;2.20;;;;;;;28.17;32.29;98778.72;4991926;28;20285;-52
2022/08/24 10:19:47;;;;;;;4.00;2.40;;;;;;;28.50;29.52;98779.34;4992581;28;20648;-51
2022/08/24 10:22:24;;;;;;;3.70;2.17;;;;;;;28.57;29.38;98777.22;4989293;28;20737;-52
2022/08/24 10:25:07;;;;;;;4.03;2.35;;;;;;;28.65;29.27;98775.88;4992258;28;20659;-51
2022/08/24 10:27:46;;;;;;;4.22;2.30;;;;;;;28.72;29.67;98774.53;4992360;28;20241;-51
2022/08/24 10:30:40;;;;;;;5.18;2.30;;;;;;;28.83;28.75;98780.75;4991749;28;20463;-51
2022/08/24 10:33:18;;;;;;;5.68;2.60;;;;;;;29.04;29.08;98774.56;4989363;28;20242;-51
2022/08/24 10:36:02;;;;;;;4.80;2.40;;;;;;;29.05;27.89;98768.13;4992560;28;20230;-51
2022/08/24 10:42:00;;;;;;;4.63;2.28;;;;;;;29.27;26.29;98741.75;4991823;28;20754;-51
2022/08/24 10:45:01;;;;;;;7.83;1.93;;;;;;;29.46;26.53;98760.03;4991677;28;20234;-52
2022/08/24 10:47:29;;;;;;;2.90;2.15;;;;;;;29.49;26.76;98756.81;4929454;29;20234;-53
2022/08/24 10:50:27;;;;;;;3.63;2.20;;;;;;;29.30;26.82;98748.47;4980054;28;20231;-53
2022/08/24 10:53:22;;;;;;;2.88;1.90;;;;;;;29.50;25.62;98755.72;4991704;28;20373;-51
2022/08/24 10:56:06;;;;;;;4.90;2.60;;;;;;;29.28;26.96;98764.06;4991588;28;20242;-51
2022/08/24 10:58:55;;;;;;;3.90;2.22;;;;;;;29.25;27.19;98762.72;4992279;28;20317;-51
2022/08/24 11:01:27;;;;;;;2.55;2.00;;;;;;;29.40;26.18;98750.38;4990484;28;20297;-54
2022/08/24 11:04:03;;;;;;;4.35;1.80;;;;;;;29.34;25.97;98756.81;4991939;28;20232;-52
2022/08/24 11:06:34;;;;;;;5.72;2.17;;;;;;;29.51;26.18;98761.88;4990858;28;20220;-54
2022/08/24 11:09:06;;;;;;;4.75;1.98;;;;;;;29.52;25.92;98761.63;4991548;28;20231;-54
2022/08/24 11:11:35;;;;;;;4.10;2.28;;;;;;;29.59;25.55;98759.47;4992020;28;20239;-51
2022/08/24 11:14:05;;;;;;;5.80;2.38;;;;;;;29.71;25.72;98745.69;4989579;28;20240;-52
2022/08/24 11:16:36;;;;;;;2.63;2.08;;;;;;;29.82;25.18;98746.44;4989889;28;20236;-55
2022/08/24 11:19:08;;;;;;;6.78;1.95;;;;;;;30.00;26.02;98741.56;4991505;28;20589;-54
2022/08/24 11:21:47;;;;;;;3.05;2.10;;;;;;;30.21;26.21;98734.16;4991828;28;20252;-54
2022/08/24 11:24:29;;;;;;;2.63;1.95;;;;;;;30.48;25.10;98743.69;4990158;28;20273;-52
2022/08/24 11:27:01;;;;;;;5.57;2.38;;;;;;;30.23;25.08;98733.91;4991127;28;20279;-54
2022/08/24 11:29:50;;;;;;;3.35;2.25;;;;;;;30.00;25.10;98725.41;4991721;28;20248;-54
2022/08/24 11:32:26;;;;;;;5.78;2.50;;;;;;;30.03;24.38;98736.44;4989454;28;20597;-54
2022/08/24 11:34:53;;;;;;;6.55;1.80;;;;;;;30.15;24.69;98727.25;4992651;28;20236;-55
2022/08/24 11:37:30;;;;;;;6.25;2.45;;;;;;;30.15;24.72;98730.72;4991453;28;20244;-52
2022/08/24 11:39:57;;;;;;;4.03;1.95;;;;;;;30.01;24.84;98732.41;4990953;28;20709;-53
2022/08/24 11:42:35;;;;;;;2.00;1.75;;;;;;;30.16;24.69;98736.91;4991397;28;20240;-51
2022/08/24 11:45:12;;;;;;;4.38;2.33;;;;;;;30.17;25.07;98736.63;4990156;28;20243;-52
2022/08/24 11:47:52;;;;;;;6.95;3.03;;;;;;;30.02;25.19;98731.31;4990032;28;20235;-51
2022/08/24 11:50:28;;;;;;;4.80;2.10;;;;;;;30.25;25.32;98745.19;4989725;28;20235;-52
2022/08/24 11:53:11;;;;;;;3.45;2.20;;;;;;;30.03;24.67;98727.56;4989921;28;20236;-54
2022/08/24 11:55:47;;;;;;;5.18;2.20;;;;;;;29.87;24.07;98727.59;4991386;28;20227;-52
2022/08/24 11:58:20;;;;;;;2.55;1.95;;;;;;;30.00;24.32;98737.00;4990894;28;20246;-53
2022/08/24 12:00:59;;;;;;;3.45;2.10;;;;;;;30.16;24.33;98735.03;4990866;28;20596;-52
2022/08/24 12:03:44;;;;;;;7.38;2.50;;;;;;;30.41;24.56;98724.34;4989341;28;20247;-52
2022/08/24 12:06:22;;;;;;;3.00;1.95;;;;;;;30.44;23.77;98732.69;4989152;28;20262;-53
2022/08/24 12:08:54;;;;;;;4.93;2.00;;;;;;;30.56;24.09;98723.47;4990990;28;20232;-54
2022/08/24 12:11:32;;;;;;;5.43;2.10;;;;;;;30.72;23.88;98724.16;4990590;28;20892;-52